sensor_id;sensor_type;location;lat;lon;timestamp;pressure;altitude;pressure_sealevel;temperature;humidity
74921;BME280;63483;47.384;8.860;2023-07-13T00:01:15;94747.47;;;17.25;50.28
74921;BME280;63483;47.384;8.860;2023-07-13T00:03:40;94742.78;;;17.27;50.23
74921;BME280;63483;47.384;8.860;2023-07-13T00:06:06;94737.72;;;17.25;50.06
74921;BME280;63483;47.384;8.860;2023-07-13T00:08:32;94726.28;;;17.25;50.75
74921;BME280;63483;47.384;8.860;2023-07-13T00:10:59;94728.72;;;17.26;50.41
74921;BME280;63483;47.384;8.860;2023-07-13T00:13:25;94728.72;;;17.26;50.53
74921;BME280;63483;47.384;8.860;2023-07-13T00:15:50;94730.78;;;17.24;50.52
74921;BME280;63483;47.384;8.860;2023-07-13T00:18:15;94725.13;;;17.20;50.31
74921;BME280;63483;47.384;8.860;2023-07-13T00:20:41;94730.84;;;17.17;49.98
74921;BME280;63483;47.384;8.860;2023-07-13T00:23:06;94725.41;;;17.12;50.12
74921;BME280;63483;47.384;8.860;2023-07-13T00:25:32;94720.13;;;17.12;50.60
74921;BME280;63483;47.384;8.860;2023-07-13T00:27:57;94709.31;;;17.14;50.35
74921;BME280;63483;47.384;8.860;2023-07-13T00:30:23;94710.31;;;17.13;50.20
74921;BME280;63483;47.384;8.860;2023-07-13T00:32:48;94699.97;;;17.11;50.31
74921;BME280;63483;47.384;8.860;2023-07-13T00:35:14;94710.56;;;17.11;50.52
74921;BME280;63483;47.384;8.860;2023-07-13T00:37:40;94702.38;;;17.13;50.36
74921;BME280;63483;47.384;8.860;2023-07-13T00:40:07;94693.50;;;17.07;50.26
74921;BME280;63483;47.384;8.860;2023-07-13T00:42:33;94696.78;;;17.02;49.74
74921;BME280;63483;47.384;8.860;2023-07-13T00:47:36;94697.22;;;16.99;50.13
74921;BME280;63483;47.384;8.860;2023-07-13T00:50:02;94694.59;;;16.99;50.36
74921;BME280;63483;47.384;8.860;2023-07-13T00:52:28;94689.31;;;16.99;50.18
74921;BME280;63483;47.384;8.860;2023-07-13T00:54:54;94693.56;;;17.00;50.27
74921;BME280;63483;47.384;8.860;2023-07-13T00:57:21;94701.72;;;16.99;50.12
74921;BME280;63483;47.384;8.860;2023-07-13T00:59:50;94704.16;;;17.00;50.28
74921;BME280;63483;47.384;8.860;2023-07-13T01:02:17;94704.16;;;17.00;50.13
74921;BME280;63483;47.384;8.860;2023-07-13T01:04:42;94698.88;;;17.00;49.80
74921;BME280;63483;47.384;8.860;2023-07-13T01:07:09;94696.66;;;16.97;49.61
74921;BME280;63483;47.384;8.860;2023-07-13T01:09:35;94691.81;;;16.94;49.42
74921;BME280;63483;47.384;8.860;2023-07-13T01:12:01;94698.56;;;16.90;49.57
74921;BME280;63483;47.384;8.860;2023-07-13T01:14:26;94704.88;;;16.89;49.51
74921;BME280;63483;47.384;8.860;2023-07-13T01:16:52;94697.53;;;16.91;49.83
74921;BME280;63483;47.384;8.860;2023-07-13T01:19:33;94686.94;;;16.91;50.14
74921;BME280;63483;47.384;8.860;2023-07-13T01:22:09;94673.13;;;16.89;50.12
74921;BME280;63483;47.384;8.860;2023-07-13T01:24:37;94661.16;;;16.87;50.02
74921;BME280;63483;47.384;8.860;2023-07-13T01:27:04;94660.75;;;16.83;49.71
74921;BME280;63483;47.384;8.860;2023-07-13T01:29:32;94665.63;;;16.86;50.08
74921;BME280;63483;47.384;8.860;2023-07-13T01:31:58;94676.22;;;16.86;50.31
74921;BME280;63483;47.384;8.860;2023-07-13T01:34:25;94681.31;;;16.81;50.32
74921;BME280;63483;47.384;8.860;2023-07-13T01:36:51;94682.34;;;16.80;50.57
74921;BME280;63483;47.384;8.860;2023-07-13T01:39:20;94686.63;;;16.81;50.37
74921;BME280;63483;47.384;8.860;2023-07-13T01:41:45;94678.69;;;16.81;50.66
74921;BME280;63483;47.384;8.860;2023-07-13T01:44:10;94685.56;;;16.82;50.63
74921;BME280;63483;47.384;8.860;2023-07-13T01:46:36;94683.97;;;16.81;50.27
74921;BME280;63483;47.384;8.860;2023-07-13T01:49:01;94687.19;;;16.83;50.51
74921;BME280;63483;47.384;8.860;2023-07-13T01:51:27;94688.00;;;16.83;50.40
74921;BME280;63483;47.384;8.860;2023-07-13T01:53:52;94685.56;;;16.82;50.30
74921;BME280;63483;47.384;8.860;2023-07-13T01:56:18;94693.50;;;16.82;50.46
74921;BME280;63483;47.384;8.860;2023-07-13T01:58:45;94692.47;;;16.83;50.47
74921;BME280;63483;47.384;8.860;2023-07-13T02:01:10;94689.84;;;16.83;50.57
74921;BME280;63483;47.384;8.860;2023-07-13T02:03:36;94692.47;;;16.83;50.20
74921;BME280;63483;47.384;8.860;2023-07-13T02:06:01;94695.94;;;16.83;50.42
74921;BME280;63483;47.384;8.860;2023-07-13T02:08:26;94700.41;;;16.83;50.58
74921;BME280;63483;47.384;8.860;2023-07-13T02:10:52;94699.84;;;16.81;50.59
74921;BME280;63483;47.384;8.860;2023-07-13T02:13:17;94708.00;;;16.79;50.06
74921;BME280;63483;47.384;8.860;2023-07-13T02:15:42;94708.44;;;16.76;50.86
74921;BME280;63483;47.384;8.860;2023-07-13T02:18:07;94710.91;;;16.71;50.92
74921;BME280;63483;47.384;8.860;2023-07-13T02:20:33;94711.34;;;16.68;50.78
74921;BME280;63483;47.384;8.860;2023-07-13T02:22:58;94714.56;;;16.70;50.49
74921;BME280;63483;47.384;8.860;2023-07-13T02:25:24;94710.09;;;16.71;50.94
74921;BME280;63483;47.384;8.860;2023-07-13T02:27:50;94710.91;;;16.71;50.86
74921;BME280;63483;47.384;8.860;2023-07-13T02:30:15;94707.25;;;16.72;50.98
74921;BME280;63483;47.384;8.860;2023-07-13T02:32:41;94711.28;;;16.75;50.93
74921;BME280;63483;47.384;8.860;2023-07-13T02:35:06;94711.28;;;16.75;50.86
74921;BME280;63483;47.384;8.860;2023-07-13T02:37:31;94702.31;;;16.76;51.00
74921;BME280;63483;47.384;8.860;2023-07-13T02:39:57;94718.19;;;16.76;50.88
74921;BME280;63483;47.384;8.860;2023-07-13T02:42:22;94707.59;;;16.76;50.77
74921;BME280;63483;47.384;8.860;2023-07-13T02:44:47;94704.38;;;16.74;51.18
74921;BME280;63483;47.384;8.860;2023-07-13T02:47:14;94702.75;;;16.73;50.78
74921;BME280;63483;47.384;8.860;2023-07-13T02:49:40;94700.09;;;16.73;50.98
74921;BME280;63483;47.384;8.860;2023-07-13T02:52:05;94705.59;;;16.71;51.19
74921;BME280;63483;47.384;8.860;2023-07-13T02:54:31;94701.16;;;16.72;51.11
74921;BME280;63483;47.384;8.860;2023-07-13T02:56:56;94699.53;;;16.71;51.33
74921;BME280;63483;47.384;8.860;2023-07-13T02:59:22;94693.41;;;16.70;50.93
74921;BME280;63483;47.384;8.860;2023-07-13T03:01:47;94691.59;;;16.71;51.40
74921;BME280;63483;47.384;8.860;2023-07-13T03:04:12;94691.59;;;16.71;51.29
74921;BME280;63483;47.384;8.860;2023-07-13T03:06:38;94680.41;;;16.68;51.40
74921;BME280;63483;47.384;8.860;2023-07-13T03:09:03;94682.81;;;16.70;51.00
74921;BME280;63483;47.384;8.860;2023-07-13T03:11:29;94682.03;;;16.70;50.83
74921;BME280;63483;47.384;8.860;2023-07-13T03:13:54;94683.66;;;16.71;51.14
74921;BME280;63483;47.384;8.860;2023-07-13T03:16:20;94683.66;;;16.71;51.22
74921;BME280;63483;47.384;8.860;2023-07-13T03:18:47;94687.31;;;16.70;51.51
74921;BME280;63483;47.384;8.860;2023-07-13T03:21:12;94690.97;;;16.68;51.35
74921;BME280;63483;47.384;8.860;2023-07-13T03:23:38;94685.69;;;16.68;51.45
74921;BME280;63483;47.384;8.860;2023-07-13T03:26:09;94695.25;;;16.70;51.76
74921;BME280;63483;47.384;8.860;2023-07-13T03:28:34;94694.66;;;16.67;51.47
74921;BME280;63483;47.384;8.860;2023-07-13T03:31:05;94708.47;;;16.70;51.41
74921;BME280;63483;47.384;8.860;2023-07-13T03:33:30;94710.53;;;16.67;51.71
74921;BME280;63483;47.384;8.860;2023-07-13T03:35:56;94707.50;;;16.64;51.23
74921;BME280;63483;47.384;8.860;2023-07-13T03:38:22;94699.34;;;16.65;51.16
74921;BME280;63483;47.384;8.860;2023-07-13T03:40:47;94707.72;;;16.62;50.90
74921;BME280;63483;47.384;8.860;2023-07-13T03:43:12;94708.59;;;16.56;50.74
74921;BME280;63483;47.384;8.860;2023-07-13T03:45:38;94708.59;;;16.56;51.11
74921;BME280;63483;47.384;8.860;2023-07-13T03:48:04;94709.38;;;16.57;51.29
74921;BME280;63483;47.384;8.860;2023-07-13T03:50:30;94708.16;;;16.59;51.38
74921;BME280;63483;47.384;8.860;2023-07-13T03:52:56;94710.78;;;16.59;51.57
74921;BME280;63483;47.384;8.860;2023-07-13T03:55:22;94705.50;;;16.59;51.62
74921;BME280;63483;47.384;8.860;2023-07-13T03:57:47;94723.56;;;16.62;51.64
74921;BME280;63483;47.384;8.860;2023-07-13T04:00:13;94712.00;;;16.63;51.33
74921;BME280;63483;47.384;8.860;2023-07-13T04:02:39;94726.22;;;16.62;51.45
74921;BME280;63483;47.384;8.860;2023-07-13T04:05:05;94716.03;;;16.66;51.77
74921;BME280;63483;47.384;8.860;2023-07-13T04:07:30;94721.53;;;16.64;51.54
74921;BME280;63483;47.384;8.860;2023-07-13T04:09:55;94720.94;;;16.62;51.45
74921;BME280;63483;47.384;8.860;2023-07-13T04:12:21;94718.91;;;16.64;51.59
74921;BME280;63483;47.384;8.860;2023-07-13T04:14:46;94721.53;;;16.64;51.61
74921;BME280;63483;47.384;8.860;2023-07-13T04:17:11;94712.00;;;16.63;51.58
74921;BME280;63483;47.384;8.860;2023-07-13T04:19:36;94710.97;;;16.64;51.57
74921;BME280;63483;47.384;8.860;2023-07-13T04:22:02;94718.06;;;16.64;51.79
74921;BME280;63483;47.384;8.860;2023-07-13T04:24:27;94720.72;;;16.64;51.63
74921;BME280;63483;47.384;8.860;2023-07-13T04:26:53;94720.72;;;16.64;51.78
74921;BME280;63483;47.384;8.860;2023-07-13T04:29:18;94732.13;;;16.64;51.39
74921;BME280;63483;47.384;8.860;2023-07-13T04:31:43;94723.16;;;16.65;51.25
74921;BME280;63483;47.384;8.860;2023-07-13T04:34:08;94721.53;;;16.64;51.17
74921;BME280;63483;47.384;8.860;2023-07-13T04:36:34;94724.78;;;16.66;51.23
74921;BME280;63483;47.384;8.860;2023-07-13T04:39:02;94719.28;;;16.68;51.35
74921;BME280;63483;47.384;8.860;2023-07-13T04:41:28;94726.41;;;16.67;51.29
74921;BME280;63483;47.384;8.860;2023-07-13T04:43:53;94736.38;;;16.65;51.53
74921;BME280;63483;47.384;8.860;2023-07-13T04:46:18;94736.97;;;16.67;51.67
74921;BME280;63483;47.384;8.860;2023-07-13T04:48:44;94738.56;;;16.68;51.79
74921;BME280;63483;47.384;8.860;2023-07-13T04:51:10;94745.50;;;16.70;51.45
74921;BME280;63483;47.384;8.860;2023-07-13T04:53:36;94754.22;;;16.70;51.73
74921;BME280;63483;47.384;8.860;2023-07-13T04:56:02;94757.69;;;16.71;51.79
74921;BME280;63483;47.384;8.860;2023-07-13T04:58:28;94752.41;;;16.71;51.78
74921;BME280;63483;47.384;8.860;2023-07-13T05:01:00;94759.72;;;16.68;52.34
74921;BME280;63483;47.384;8.860;2023-07-13T05:03:25;94760.56;;;16.69;51.98
74921;BME280;63483;47.384;8.860;2023-07-13T05:05:58;94754.44;;;16.68;51.60
74921;BME280;63483;47.384;8.860;2023-07-13T05:08:24;94761.34;;;16.70;51.94
74921;BME280;63483;47.384;8.860;2023-07-13T05:10:51;94766.28;;;16.66;52.22
74921;BME280;63483;47.384;8.860;2023-07-13T05:13:16;94774.78;;;16.68;51.88
74921;BME280;63483;47.384;8.860;2023-07-13T05:15:42;94771.13;;;16.69;51.95
74921;BME280;63483;47.384;8.860;2023-07-13T05:18:07;94768.72;;;16.67;52.21
74921;BME280;63483;47.384;8.860;2023-07-13T05:20:32;94774.78;;;16.68;51.91
74921;BME280;63483;47.384;8.860;2023-07-13T05:22:58;94782.28;;;16.71;51.93
74921;BME280;63483;47.384;8.860;2023-07-13T05:25:23;94777.22;;;16.70;51.82
74921;BME280;63483;47.384;8.860;2023-07-13T05:27:48;94776.44;;;16.69;52.02
74921;BME280;63483;47.384;8.860;2023-07-13T05:30:14;94787.81;;;16.70;51.42
74921;BME280;63483;47.384;8.860;2023-07-13T05:32:40;94790.88;;;16.66;51.65
74921;BME280;63483;47.384;8.860;2023-07-13T05:35:06;94791.91;;;16.65;51.85
74921;BME280;63483;47.384;8.860;2023-07-13T05:37:32;94786.38;;;16.67;52.33
74921;BME280;63483;47.384;8.860;2023-07-13T05:39:57;94788.22;;;16.66;52.06
74921;BME280;63483;47.384;8.860;2023-07-13T05:42:22;94788.59;;;16.70;52.35
74921;BME280;63483;47.384;8.860;2023-07-13T05:44:48;94787.81;;;16.70;52.14
74921;BME280;63483;47.384;8.860;2023-07-13T05:47:13;94797.38;;;16.71;52.46
74921;BME280;63483;47.384;8.860;2023-07-13T05:49:40;94794.72;;;16.71;52.27
74921;BME280;63483;47.384;8.860;2023-07-13T05:52:05;94797.94;;;16.73;52.50
74921;BME280;63483;47.384;8.860;2023-07-13T05:54:31;94805.88;;;16.73;52.46
74921;BME280;63483;47.384;8.860;2023-07-13T05:56:56;94802.81;;;16.76;52.54
74921;BME280;63483;47.384;8.860;2023-07-13T05:59:21;94798.34;;;16.76;52.04
74921;BME280;63483;47.384;8.860;2023-07-13T06:01:47;94794.28;;;16.74;52.31
74921;BME280;63483;47.384;8.860;2023-07-13T06:04:12;94803.25;;;16.73;52.25
74921;BME280;63483;47.384;8.860;2023-07-13T06:06:37;94802.44;;;16.72;52.18
74921;BME280;63483;47.384;8.860;2023-07-13T06:09:03;94809.34;;;16.73;52.64
74921;BME280;63483;47.384;8.860;2023-07-13T06:11:28;94815.44;;;16.74;52.23
74921;BME280;63483;47.384;8.860;2023-07-13T06:13:55;94814.44;;;16.75;52.20
74921;BME280;63483;47.384;8.860;2023-07-13T06:16:21;94828.25;;;16.77;52.13
74921;BME280;63483;47.384;8.860;2023-07-13T06:18:47;94831.69;;;16.77;52.52
74921;BME280;63483;47.384;8.860;2023-07-13T06:21:16;94834.13;;;16.79;52.64
74921;BME280;63483;47.384;8.860;2023-07-13T06:23:42;94845.31;;;16.81;52.54
74921;BME280;63483;47.384;8.860;2023-07-13T06:26:08;94850.59;;;16.81;52.67
74921;BME280;63483;47.384;8.860;2023-07-13T06:28:34;94853.25;;;16.81;52.61
74921;BME280;63483;47.384;8.860;2023-07-13T06:31:00;94849.97;;;16.79;52.46
74921;BME280;63483;47.384;8.860;2023-07-13T06:33:26;94831.31;;;16.74;52.38
74921;BME280;63483;47.384;8.860;2023-07-13T06:35:51;94845.97;;;16.70;52.33
74921;BME280;63483;47.384;8.860;2023-07-13T06:38:17;94843.13;;;16.71;52.05
74921;BME280;63483;47.384;8.860;2023-07-13T06:40:42;94852.47;;;16.74;51.98
74921;BME280;63483;47.384;8.860;2023-07-13T06:43:08;94850.41;;;16.76;52.55
74921;BME280;63483;47.384;8.860;2023-07-13T06:45:41;94852.03;;;16.77;52.91
74921;BME280;63483;47.384;8.860;2023-07-13T06:48:07;94847.56;;;16.77;52.97
74921;BME280;63483;47.384;8.860;2023-07-13T06:50:33;94857.91;;;16.79;53.13
74921;BME280;63483;47.384;8.860;2023-07-13T06:52:58;94861.19;;;16.81;52.73
74921;BME280;63483;47.384;8.860;2023-07-13T06:55:25;94863.81;;;16.81;52.61
74921;BME280;63483;47.384;8.860;2023-07-13T06:57:50;94863.38;;;16.84;52.35
74921;BME280;63483;47.384;8.860;2023-07-13T07:00:15;94858.09;;;16.84;52.12
74921;BME280;63483;47.384;8.860;2023-07-13T07:02:41;94860.13;;;16.82;51.40
74921;BME280;63483;47.384;8.860;2023-07-13T07:05:06;94859.38;;;16.75;51.64
74921;BME280;63483;47.384;8.860;2023-07-13T07:07:32;94869.34;;;16.73;52.38
74921;BME280;63483;47.384;8.860;2023-07-13T07:09:57;94870.19;;;16.73;52.40
74921;BME280;63483;47.384;8.860;2023-07-13T07:12:22;94873.63;;;16.74;52.46
74921;BME280;63483;47.384;8.860;2023-07-13T07:14:48;94875.25;;;16.75;52.30
74921;BME280;63483;47.384;8.860;2023-07-13T07:17:13;94883.78;;;16.77;52.35
74921;BME280;63483;47.384;8.860;2023-07-13T07:19:38;94898.19;;;16.81;53.03
74921;BME280;63483;47.384;8.860;2023-07-13T07:22:03;94879.06;;;16.85;52.69
74921;BME280;63483;47.384;8.860;2023-07-13T07:24:29;94882.09;;;16.89;52.39
74921;BME280;63483;47.384;8.860;2023-07-13T07:26:54;94873.34;;;16.89;51.98
74921;BME280;63483;47.384;8.860;2023-07-13T07:29:19;94873.13;;;16.83;52.07
74921;BME280;63483;47.384;8.860;2023-07-13T07:31:45;94877.63;;;16.83;52.07
74921;BME280;63483;47.384;8.860;2023-07-13T07:34:10;94878.44;;;16.83;52.30
74921;BME280;63483;47.384;8.860;2023-07-13T07:36:35;94873.34;;;16.89;52.23
74921;BME280;63483;47.384;8.860;2023-07-13T07:39:01;94876.16;;;16.94;52.08
74921;BME280;63483;47.384;8.860;2023-07-13T07:41:26;94870.25;;;16.98;52.73
74921;BME280;63483;47.384;8.860;2023-07-13T07:43:51;94863.25;;;17.04;52.10
74921;BME280;63483;47.384;8.860;2023-07-13T07:46:17;94863.66;;;17.08;52.20
74921;BME280;63483;47.384;8.860;2023-07-13T07:48:42;94862.66;;;17.09;50.63
74921;BME280;63483;47.384;8.860;2023-07-13T07:51:07;94862.22;;;17.12;50.91
74921;BME280;63483;47.384;8.860;2023-07-13T07:53:32;94868.66;;;17.16;50.79
74921;BME280;63483;47.384;8.860;2023-07-13T07:55:58;94864.56;;;17.20;50.78
74921;BME280;63483;47.384;8.860;2023-07-13T07:58:23;94869.28;;;17.18;50.46
74921;BME280;63483;47.384;8.860;2023-07-13T08:00:48;94865.19;;;17.22;50.00
74921;BME280;63483;47.384;8.860;2023-07-13T08:03:14;94868.84;;;17.21;49.88
74921;BME280;63483;47.384;8.860;2023-07-13T08:05:39;94871.50;;;17.21;49.35
74921;BME280;63483;47.384;8.860;2023-07-13T08:08:04;94877.97;;;17.25;49.39
74921;BME280;63483;47.384;8.860;2023-07-13T08:10:30;94873.63;;;17.31;49.20
74921;BME280;63483;47.384;8.860;2023-07-13T08:12:55;94865.88;;;17.36;49.74
74921;BME280;63483;47.384;8.860;2023-07-13T08:15:20;94870.03;;;17.25;47.71
74921;BME280;63483;47.384;8.860;2023-07-13T08:17:48;94868.31;;;17.37;48.26
74921;BME280;63483;47.384;8.860;2023-07-13T08:20:14;94877.22;;;17.43;49.09
74921;BME280;63483;47.384;8.860;2023-07-13T08:22:39;94882.13;;;17.40;47.75
74921;BME280;63483;47.384;8.860;2023-07-13T08:25:05;94882.28;;;17.45;47.46
74921;BME280;63483;47.384;8.860;2023-07-13T08:27:30;94878.84;;;17.44;46.91
74921;BME280;63483;47.384;8.860;2023-07-13T08:29:56;94878.00;;;17.44;46.88
74921;BME280;63483;47.384;8.860;2023-07-13T08:32:22;94886.56;;;17.46;47.35
74921;BME280;63483;47.384;8.860;2023-07-13T08:34:48;94875.31;;;17.50;46.07
74921;BME280;63483;47.384;8.860;2023-07-13T08:37:14;94870.25;;;17.49;46.79
74921;BME280;63483;47.384;8.860;2023-07-13T08:39:40;94877.31;;;17.55;46.78
74921;BME280;63483;47.384;8.860;2023-07-13T08:42:12;94868.09;;;17.64;46.83
74921;BME280;63483;47.384;8.860;2023-07-13T08:44:55;94875.00;;;17.65;46.69
74921;BME280;63483;47.384;8.860;2023-07-13T08:47:23;94882.16;;;17.58;47.02
74921;BME280;63483;47.384;8.860;2023-07-13T08:49:50;94880.22;;;17.72;47.17
74921;BME280;63483;47.384;8.860;2023-07-13T08:52:27;94888.19;;;17.90;46.82
74921;BME280;63483;47.384;8.860;2023-07-13T08:54:56;94892.97;;;18.00;49.00
74921;BME280;63483;47.384;8.860;2023-07-13T08:57:29;94893.78;;;18.19;48.94
74921;BME280;63483;47.384;8.860;2023-07-13T08:59:56;94891.50;;;18.23;49.10
74921;BME280;63483;47.384;8.860;2023-07-13T09:02:34;94900.81;;;18.32;48.06
74921;BME280;63483;47.384;8.860;2023-07-13T09:05:10;94890.56;;;18.36;48.03
74921;BME280;63483;47.384;8.860;2023-07-13T09:10:35;94878.19;;;18.48;47.19
74921;BME280;63483;47.384;8.860;2023-07-13T09:13:29;94883.31;;;18.62;46.10
74921;BME280;63483;47.384;8.860;2023-07-13T09:15:59;94887.94;;;18.66;46.56
74921;BME280;63483;47.384;8.860;2023-07-13T09:18:35;94890.13;;;18.69;45.86
74921;BME280;63483;47.384;8.860;2023-07-13T09:21:17;94885.19;;;18.73;45.01
74921;BME280;63483;47.384;8.860;2023-07-13T09:23:44;94890.88;;;18.76;45.76
74921;BME280;63483;47.384;8.860;2023-07-13T09:26:19;94890.75;;;18.83;45.85
74921;BME280;63483;47.384;8.860;2023-07-13T09:28:48;94890.66;;;18.90;45.31
74921;BME280;63483;47.384;8.860;2023-07-13T09:31:33;94895.53;;;18.93;44.27
74921;BME280;63483;47.384;8.860;2023-07-13T09:34:00;94896.78;;;18.90;43.61
74921;BME280;63483;47.384;8.860;2023-07-13T09:36:31;94892.31;;;18.91;43.32
74921;BME280;63483;47.384;8.860;2023-07-13T09:41:46;94900.56;;;19.01;42.69
74921;BME280;63483;47.384;8.860;2023-07-13T09:44:16;94899.63;;;19.07;41.83
74921;BME280;63483;47.384;8.860;2023-07-13T09:46:51;94913.72;;;19.08;42.85
74921;BME280;63483;47.384;8.860;2023-07-13T09:49:17;94909.81;;;19.10;42.81
74921;BME280;63483;47.384;8.860;2023-07-13T09:51:43;94899.91;;;19.18;42.27
74921;BME280;63483;47.384;8.860;2023-07-13T09:54:20;94909.00;;;19.22;42.80
74921;BME280;63483;47.384;8.860;2023-07-13T09:56:45;94908.56;;;19.25;42.59
74921;BME280;63483;47.384;8.860;2023-07-13T09:59:35;94902.81;;;19.28;43.00
74921;BME280;63483;47.384;8.860;2023-07-13T10:02:01;94911.34;;;19.30;42.86
74921;BME280;63483;47.384;8.860;2023-07-13T10:04:33;94916.19;;;19.33;42.03
74921;BME280;63483;47.384;8.860;2023-07-13T10:07:12;94911.69;;;19.34;40.99
74921;BME280;63483;47.384;8.860;2023-07-13T10:09:40;94916.19;;;19.33;41.50
74921;BME280;63483;47.384;8.860;2023-07-13T10:12:14;94924.28;;;19.38;42.29
74921;BME280;63483;47.384;8.860;2023-07-13T10:14:41;94912.97;;;19.43;42.32
74921;BME280;63483;47.384;8.860;2023-07-13T10:17:10;94913.78;;;19.43;42.17
74921;BME280;63483;47.384;8.860;2023-07-13T10:19:38;94910.31;;;19.43;42.77
74921;BME280;63483;47.384;8.860;2023-07-13T10:24:51;94923.16;;;19.46;42.63
74921;BME280;63483;47.384;8.860;2023-07-13T10:27:19;94922.53;;;19.44;42.61
74921;BME280;63483;47.384;8.860;2023-07-13T10:29:54;94918.63;;;19.46;41.74
74921;BME280;63483;47.384;8.860;2023-07-13T10:32:24;94908.22;;;19.45;42.77
74921;BME280;63483;47.384;8.860;2023-07-13T10:34:50;94906.97;;;19.47;42.70
74921;BME280;63483;47.384;8.860;2023-07-13T10:37:23;94915.06;;;19.53;42.66
74921;BME280;63483;47.384;8.860;2023-07-13T10:39:51;94913.22;;;19.53;42.39
74921;BME280;63483;47.384;8.860;2023-07-13T10:42:27;94910.91;;;19.57;42.14
74921;BME280;63483;47.384;8.860;2023-07-13T10:44:54;94914.72;;;19.61;42.11
74921;BME280;63483;47.384;8.860;2023-07-13T10:47:19;94917.94;;;19.63;41.66
74921;BME280;63483;47.384;8.860;2023-07-13T10:49:47;94933.88;;;19.63;40.41
74921;BME280;63483;47.384;8.860;2023-07-13T10:52:40;94927.53;;;19.64;41.12
74921;BME280;63483;47.384;8.860;2023-07-13T10:55:54;94922.59;;;19.68;40.14
74921;BME280;63483;47.384;8.860;2023-07-13T10:58:22;94925.38;;;19.73;41.02
74921;BME280;63483;47.384;8.860;2023-07-13T11:01:09;94924.78;;;19.82;41.48
74921;BME280;63483;47.384;8.860;2023-07-13T11:03:54;94929.78;;;19.91;41.14
74921;BME280;63483;47.384;8.860;2023-07-13T11:13:58;94919.81;;;20.10;40.92
74921;BME280;63483;47.384;8.860;2023-07-13T11:21:29;94923.13;;;20.52;39.40
74921;BME280;63483;47.384;8.860;2023-07-13T11:24:12;94916.69;;;20.65;41.36
74921;BME280;63483;47.384;8.860;2023-07-13T11:26:46;94917.31;;;20.84;39.83
74921;BME280;63483;47.384;8.860;2023-07-13T11:31:58;94917.00;;;20.81;40.39
74921;BME280;63483;47.384;8.860;2023-07-13T11:34:28;94909.19;;;20.91;39.84
74921;BME280;63483;47.384;8.860;2023-07-13T11:36:57;94910.69;;;20.99;39.26
74921;BME280;63483;47.384;8.860;2023-07-13T11:39:29;94902.63;;;21.11;38.91
74921;BME280;63483;47.384;8.860;2023-07-13T11:42:05;94905.06;;;21.12;39.15
74921;BME280;63483;47.384;8.860;2023-07-13T11:44:33;94903.91;;;21.08;40.01
74921;BME280;63483;47.384;8.860;2023-07-13T11:47:11;94903.78;;;21.32;39.98
74921;BME280;63483;47.384;8.860;2023-07-13T11:49:45;94888.28;;;21.46;39.57
74921;BME280;63483;47.384;8.860;2023-07-13T11:52:16;94890.00;;;21.52;38.79
74921;BME280;63483;47.384;8.860;2023-07-13T11:54:50;94888.06;;;21.47;39.41
74921;BME280;63483;47.384;8.860;2023-07-13T11:57:35;94891.38;;;21.54;38.50
74921;BME280;63483;47.384;8.860;2023-07-13T12:00:14;94894.28;;;21.53;38.42
74921;BME280;63483;47.384;8.860;2023-07-13T12:02:45;94887.81;;;21.66;38.93
74921;BME280;63483;47.384;8.860;2023-07-13T12:05:15;94883.63;;;21.70;37.96
74921;BME280;63483;47.384;8.860;2023-07-13T12:07:43;94892.16;;;21.72;37.89
74921;BME280;63483;47.384;8.860;2023-07-13T12:12:35;94893.94;;;21.83;37.55
74921;BME280;63483;47.384;8.860;2023-07-13T12:15:05;94890.88;;;21.91;37.91
74921;BME280;63483;47.384;8.860;2023-07-13T12:17:31;94887.22;;;21.98;37.73
74921;BME280;63483;47.384;8.860;2023-07-13T12:19:56;94891.78;;;22.02;37.51
74921;BME280;63483;47.384;8.860;2023-07-13T12:22:22;94883.34;;;22.11;36.99
74921;BME280;63483;47.384;8.860;2023-07-13T12:24:48;94883.34;;;22.11;36.89
74921;BME280;63483;47.384;8.860;2023-07-13T12:27:25;94889.81;;;22.15;37.43
74921;BME280;63483;47.384;8.860;2023-07-13T12:32:25;94886.34;;;22.14;37.23
74921;BME280;63483;47.384;8.860;2023-07-13T12:34:57;94883.69;;;22.14;37.64
74921;BME280;63483;47.384;8.860;2023-07-13T12:37:23;94885.31;;;22.15;37.64
74921;BME280;63483;47.384;8.860;2023-07-13T12:39:49;94883.13;;;22.12;36.79
74921;BME280;63483;47.384;8.860;2023-07-13T12:42:22;94884.72;;;22.13;36.98
74921;BME280;63483;47.384;8.860;2023-07-13T12:44:53;94884.97;;;22.12;37.07
74921;BME280;63483;47.384;8.860;2023-07-13T12:47:21;94877.22;;;22.10;36.77
74921;BME280;63483;47.384;8.860;2023-07-13T12:49:58;94876.44;;;22.09;37.59
74921;BME280;63483;47.384;8.860;2023-07-13T12:52:30;94875.59;;;22.09;36.51
74921;BME280;63483;47.384;8.860;2023-07-13T12:55:04;94874.06;;;22.13;35.62
74921;BME280;63483;47.384;8.860;2023-07-13T12:57:30;94871.38;;;22.13;35.88
74921;BME280;63483;47.384;8.860;2023-07-13T12:59:56;94864.25;;;22.19;36.07
74921;BME280;63483;47.384;8.860;2023-07-13T13:02:31;94872.03;;;22.20;36.91
74921;BME280;63483;47.384;8.860;2023-07-13T13:04:58;94878.00;;;22.28;35.88
74921;BME280;63483;47.384;8.860;2023-07-13T13:07:24;94876.38;;;22.26;36.58
74921;BME280;63483;47.384;8.860;2023-07-13T13:09:50;94880.25;;;22.36;36.67
74921;BME280;63483;47.384;8.860;2023-07-13T13:12:17;94871.88;;;22.49;36.18
74921;BME280;63483;47.384;8.860;2023-07-13T13:14:42;94870.91;;;22.60;36.02
74921;BME280;63483;47.384;8.860;2023-07-13T13:17:18;94861.38;;;22.70;35.50
74921;BME280;63483;47.384;8.860;2023-07-13T13:19:45;94859.31;;;22.77;35.40
74921;BME280;63483;47.384;8.860;2023-07-13T13:22:11;94862.56;;;22.79;36.81
74921;BME280;63483;47.384;8.860;2023-07-13T13:24:36;94862.63;;;22.84;35.57
74921;BME280;63483;47.384;8.860;2023-07-13T13:27:01;94860.56;;;22.91;35.17
74921;BME280;63483;47.384;8.860;2023-07-13T13:29:27;94863.28;;;22.97;35.79
74921;BME280;63483;47.384;8.860;2023-07-13T13:31:54;94858.59;;;23.09;35.63
74921;BME280;63483;47.384;8.860;2023-07-13T13:34:21;94851.97;;;23.17;35.19